Time;durP1;ratioP1;P1;durP2;ratioP2;P2;SDS_P1;SDS_P2;PMS_P1;PMS_P2;Temp;Humidity;BMP_temperature;BMP_pressure;BME280_temperature;BME280_humidity;BME280_pressure;Samples;Min_cycle;Max_cycle;Signal;HPM_P1;HPM_P2
2023/11/20 00:01:21;;;;;;;4.70;1.50;;;;;;;11.04;100.00;99773.97;7395564;19;20337;-71
2023/11/20 00:03:50;;;;;;;3.90;1.20;;;;;;;11.05;100.00;99770.28;7388678;19;20412;-69
2023/11/20 00:06:18;;;;;;;3.45;1.42;;;;;;;11.04;100.00;99769.47;7391463;19;20364;-68
2023/11/20 00:08:46;;;;;;;2.70;1.00;;;;;;;11.09;100.00;99771.50;7396481;19;20717;-68
2023/11/20 00:11:15;;;;;;;1.80;0.90;;;;;;;11.08;100.00;99772.56;7395463;19;20371;-67
2023/11/20 00:13:42;;;;;;;2.53;0.80;;;;;;;11.09;100.00;99771.50;7396267;19;20449;-67
2023/11/20 00:16:11;;;;;;;2.63;1.00;;;;;;;11.10;100.00;99767.84;7391484;19;20444;-67
2023/11/20 00:18:39;;;;;;;2.22;0.90;;;;;;;11.09;100.00;99772.31;7394777;19;20348;-66
2023/11/20 00:21:06;;;;;;;3.08;0.80;;;;;;;11.13;100.00;99759.47;7394879;19;20876;-66
2023/11/20 00:23:33;;;;;;;1.88;0.70;;;;;;;11.15;100.00;99766.22;7395261;19;20380;-66
2023/11/20 00:25:59;;;;;;;2.65;0.77;;;;;;;11.16;100.00;99775.03;7393942;19;20450;-66
2023/11/20 00:28:26;;;;;;;1.52;0.70;;;;;;;11.18;100.00;99770.31;7394382;19;20363;-65
2023/11/20 00:30:53;;;;;;;2.15;0.60;;;;;;;11.20;100.00;99763.78;7391154;19;20344;-66
2023/11/20 00:33:20;;;;;;;1.15;0.55;;;;;;;11.21;100.00;99769.91;7392519;19;20372;-65
2023/11/20 00:35:47;;;;;;;2.15;0.60;;;;;;;11.21;100.00;99764.59;7395266;19;20978;-65
2023/11/20 00:38:13;;;;;;;1.23;0.60;;;;;;;11.23;100.00;99771.34;7393399;19;20352;-65
2023/11/20 00:40:41;;;;;;;1.00;0.50;;;;;;;11.23;100.00;99767.88;7392861;19;20348;-65
2023/11/20 00:43:09;;;;;;;2.50;0.50;;;;;;;11.26;100.00;99762.16;7394716;19;20670;-65
2023/11/20 00:45:36;;;;;;;1.58;0.70;;;;;;;11.27;100.00;99753.19;7393040;19;20401;-65
2023/11/20 00:48:03;;;;;;;1.23;0.57;;;;;;;11.29;100.00;99752.97;7392860;19;20365;-65
2023/11/20 00:50:30;;;;;;;0.70;0.50;;;;;;;11.31;100.00;99759.72;7394129;19;20364;-65
2023/11/20 00:52:56;;;;;;;0.80;0.50;;;;;;;11.33;100.00;99773.63;7393249;19;20360;-65
2023/11/20 00:55:23;;;;;;;2.38;0.55;;;;;;;11.35;100.00;99762.78;7392956;19;20364;-65
2023/11/20 00:57:50;;;;;;;1.20;0.60;;;;;;;11.37;100.00;99761.56;7391549;19;20368;-65
2023/11/20 01:00:18;;;;;;;1.85;0.80;;;;;;;11.36;100.00;99765.22;7390409;19;20375;-65
2023/11/20 01:02:49;;;;;;;1.13;0.60;;;;;;;11.38;100.00;99763.19;7388034;19;20395;-65
2023/11/20 01:05:16;;;;;;;1.40;0.70;;;;;;;11.37;100.00;99768.72;7385112;19;20348;-65
2023/11/20 01:07:43;;;;;;;1.50;0.60;;;;;;;11.40;100.00;99774.44;7388301;19;20439;-66
2023/11/20 01:10:10;;;;;;;2.05;0.77;;;;;;;11.42;100.00;99761.75;7389765;19;20419;-66
2023/11/20 01:12:37;;;;;;;1.48;0.73;;;;;;;11.42;100.00;99767.06;7390987;19;20365;-65
2023/11/20 01:15:04;;;;;;;1.47;0.80;;;;;;;11.43;100.00;99758.09;7391010;19;20437;-66
2023/11/20 01:17:34;;;;;;;2.00;0.85;;;;;;;11.45;100.00;99757.88;7391261;19;20408;-66
2023/11/20 01:20:02;;;;;;;1.70;0.80;;;;;;;11.48;100.00;99775.28;7390855;19;20348;-67
2023/11/20 01:22:30;;;;;;;1.80;0.70;;;;;;;11.52;100.00;99765.88;7394036;19;21081;-66
2023/11/20 01:24:57;;;;;;;1.73;0.80;;;;;;;11.51;100.00;99758.91;7391910;19;20365;-67
2023/11/20 01:27:25;;;;;;;1.27;0.80;;;;;;;11.54;100.00;99763.81;7393600;19;20364;-66
2023/11/20 01:29:52;;;;;;;2.40;0.90;;;;;;;11.54;100.00;99769.13;7390686;19;20352;-66
2023/11/20 01:32:19;;;;;;;2.00;0.90;;;;;;;11.54;100.00;99766.47;7391141;19;20921;-66
2023/11/20 01:34:45;;;;;;;2.22;1.00;;;;;;;11.53;100.00;99778.13;7389274;19;20773;-66
2023/11/20 01:37:12;;;;;;;2.20;1.10;;;;;;;11.55;100.00;99758.28;7390218;19;20365;-65
2023/11/20 01:39:39;;;;;;;1.80;0.98;;;;;;;11.52;100.00;99787.13;7388234;19;20419;-66
2023/11/20 01:42:06;;;;;;;1.95;1.00;;;;;;;11.53;100.00;99763.00;7390926;19;20360;-67
2023/11/20 01:44:33;;;;;;;2.50;1.10;;;;;;;11.55;100.00;99774.22;7390573;19;20352;-66
2023/11/20 01:47:01;;;;;;;2.50;1.15;;;;;;;11.57;100.00;99769.53;7392215;19;20373;-66
2023/11/20 01:49:30;;;;;;;1.98;1.10;;;;;;;11.58;100.00;99773.00;7391291;19;20357;-66
2023/11/20 01:51:57;;;;;;;1.98;1.00;;;;;;;11.55;100.00;99762.78;7390163;19;20752;-65
2023/11/20 01:54:25;;;;;;;1.70;1.00;;;;;;;11.56;100.00;99753.78;7390646;19;20360;-65
2023/11/20 01:56:53;;;;;;;2.45;1.00;;;;;;;11.58;100.00;99770.34;7390892;19;20439;-65
2023/11/20 01:59:20;;;;;;;2.33;1.02;;;;;;;11.62;100.00;99760.94;7388544;19;20401;-65
2023/11/20 02:01:47;;;;;;;1.70;0.95;;;;;;;11.61;100.00;99754.00;7389407;19;20900;-65
2023/11/20 02:04:14;;;;;;;1.52;0.80;;;;;;;11.65;100.00;99770.38;7391032;19;20693;-64
2023/11/20 02:06:42;;;;;;;1.40;0.70;;;;;;;11.63;100.00;99763.41;7390216;19;20436;-65
2023/11/20 02:09:09;;;;;;;1.90;0.80;;;;;;;11.66;100.00;99746.25;7390949;19;20358;-64
2023/11/20 02:11:36;;;;;;;1.92;0.90;;;;;;;11.69;100.00;99751.16;7390986;19;20375;-64
2023/11/20 02:14:03;;;;;;;1.65;0.90;;;;;;;11.68;100.00;99757.47;7387432;19;20352;-64
2023/11/20 02:16:30;;;;;;;2.17;0.90;;;;;;;11.68;100.00;99761.97;7389352;19;20439;-64
2023/11/20 02:18:57;;;;;;;2.40;0.80;;;;;;;11.72;100.00;99763.22;7389488;19;20389;-64
2023/11/20 02:21:24;;;;;;;1.63;0.80;;;;;;;11.74;100.00;99747.88;7390434;19;20365;-64
2023/11/20 02:23:51;;;;;;;1.40;0.80;;;;;;;11.72;100.00;99753.38;7393288;19;20350;-65
2023/11/20 02:26:33;;;;;;;2.15;0.90;;;;;;;11.71;100.00;99749.13;7389687;19;20364;-64
2023/11/20 02:29:22;;;;;;;2.13;0.90;;;;;;;11.72;100.00;99749.91;7388861;19;20431;-64
2023/11/20 02:31:49;;;;;;;2.00;0.95;;;;;;;11.70;100.00;99758.09;7392057;19;20363;-64
2023/11/20 02:34:16;;;;;;;1.65;0.98;;;;;;;11.68;100.00;99767.28;7391769;19;20376;-64
2023/11/20 02:36:43;;;;;;;2.13;0.82;;;;;;;11.68;100.00;99760.13;7390010;19;20403;-64
2023/11/20 02:39:10;;;;;;;2.53;1.25;;;;;;;11.68;100.00;99743.38;7389581;19;20347;-64
2023/11/20 02:41:37;;;;;;;2.13;1.20;;;;;;;11.68;100.00;99748.69;7391032;19;20389;-64
2023/11/20 02:44:04;;;;;;;3.08;1.38;;;;;;;11.61;100.00;99749.50;7389921;19;20364;-65
2023/11/20 02:46:31;;;;;;;2.30;1.00;;;;;;;11.61;100.00;99759.31;7390590;19;20375;-64
2023/11/20 02:48:58;;;;;;;3.22;1.38;;;;;;;11.62;100.00;99752.97;7389658;19;20729;-64
2023/11/20 02:51:25;;;;;;;2.27;1.00;;;;;;;11.61;100.00;99748.69;7397107;19;20442;-64
2023/11/20 02:53:52;;;;;;;3.20;1.20;;;;;;;11.59;100.00;99746.25;7395930;19;20368;-65
2023/11/20 02:56:19;;;;;;;3.42;1.10;;;;;;;11.60;100.00;99744.41;7396550;19;20356;-64
2023/11/20 02:58:46;;;;;;;2.10;1.25;;;;;;;11.59;100.00;99767.50;7397777;19;20384;-64
2023/11/20 03:01:15;;;;;;;2.17;0.98;;;;;;;11.61;100.00;99740.72;7396452;19;20376;-64
2023/11/20 03:03:42;;;;;;;2.95;0.90;;;;;;;11.62;100.00;99745.00;7396864;19;20409;-64
2023/11/20 03:06:09;;;;;;;3.83;1.00;;;;;;;11.66;100.00;99748.09;7394132;19;20408;-64
2023/11/20 03:08:36;;;;;;;2.13;1.20;;;;;;;11.71;100.00;99754.44;7397470;19;20336;-64
2023/11/20 03:11:03;;;;;;;2.42;0.80;;;;;;;11.70;100.00;99758.09;7396147;19;20747;-64
2023/11/20 03:13:30;;;;;;;2.70;1.00;;;;;;;11.71;100.00;99742.97;7397024;19;20396;-65
2023/11/20 03:15:57;;;;;;;3.88;1.05;;;;;;;11.70;100.00;99744.81;7395568;19;20345;-66
2023/11/20 03:18:24;;;;;;;2.05;0.98;;;;;;;11.67;100.00;99747.88;7395377;19;20483;-66
2023/11/20 03:20:51;;;;;;;2.50;1.10;;;;;;;11.66;100.00;99756.06;7395553;19;20357;-65
2023/11/20 03:23:18;;;;;;;2.65;1.10;;;;;;;11.68;100.00;99752.16;7397337;19;20369;-66
2023/11/20 03:25:44;;;;;;;3.13;1.20;;;;;;;11.66;100.00;99751.56;7396470;19;20724;-65
2023/11/20 03:28:11;;;;;;;1.92;1.00;;;;;;;11.63;100.00;99754.63;7395865;19;20798;-65
2023/11/20 03:30:38;;;;;;;1.70;1.10;;;;;;;11.61;100.00;99749.50;7395691;19;20389;-65
2023/11/20 03:33:05;;;;;;;2.78;1.02;;;;;;;11.61;100.00;99748.69;7397225;19;20368;-65
2023/11/20 03:35:32;;;;;;;2.92;1.08;;;;;;;11.62;100.00;99750.31;7395399;19;20344;-66
2023/11/20 03:37:59;;;;;;;1.90;1.00;;;;;;;11.61;100.00;99765.44;7395520;19;20443;-65
2023/11/20 03:40:26;;;;;;;1.60;0.70;;;;;;;11.62;100.00;99761.78;7395696;19;20340;-65
2023/11/20 03:42:52;;;;;;;2.55;0.90;;;;;;;11.65;100.00;99771.19;7397390;19;20371;-65
2023/11/20 03:45:19;;;;;;;1.63;1.00;;;;;;;11.66;100.00;99764.03;7394486;19;20376;-65
2023/11/20 03:47:46;;;;;;;1.80;0.80;;;;;;;11.63;100.00;99758.09;7395947;19;20668;-65
2023/11/20 03:50:14;;;;;;;2.30;0.80;;;;;;;11.63;100.00;99763.41;7394749;19;20875;-65
2023/11/20 03:52:40;;;;;;;2.30;1.02;;;;;;;11.61;100.00;99761.97;7396835;19;20732;-64
2023/11/20 03:55:09;;;;;;;1.65;0.70;;;;;;;11.60;100.00;99760.34;7395239;19;20369;-64
2023/11/20 03:57:36;;;;;;;1.92;0.82;;;;;;;11.62;100.00;99759.13;7395478;19;20381;-64
2023/11/20 04:00:04;;;;;;;1.30;0.68;;;;;;;11.63;100.00;99754.63;7393473;19;20340;-64
2023/11/20 04:02:32;;;;;;;1.65;0.80;;;;;;;11.59;100.00;99766.69;7394427;19;20381;-64
2023/11/20 04:04:59;;;;;;;1.33;0.70;;;;;;;11.61;100.00;99754.00;7396333;19;20357;-64
2023/11/20 04:07:26;;;;;;;1.42;0.73;;;;;;;11.57;100.00;99753.59;7397423;19;20864;-64
2023/11/20 04:09:53;;;;;;;1.23;0.60;;;;;;;11.56;100.00;99761.75;7395148;19;20427;-64
2023/11/20 04:12:20;;;;;;;2.70;0.83;;;;;;;11.57;100.00;99755.44;7395183;19;20356;-63
2023/11/20 04:14:50;;;;;;;1.88;0.80;;;;;;;11.55;100.00;99770.75;7395197;19;20364;-65
2023/11/20 04:17:16;;;;;;;1.95;0.70;;;;;;;11.51;100.00;99758.91;7395516;19;20685;-64
2023/11/20 04:19:44;;;;;;;2.17;0.77;;;;;;;11.47;100.00;99757.69;7392679;19;20388;-65
2023/11/20 04:22:11;;;;;;;2.50;1.20;;;;;;;11.52;100.00;99760.56;7394298;19;20386;-65
2023/11/20 04:24:38;;;;;;;2.07;0.90;;;;;;;11.45;100.00;99776.47;7392867;19;20364;-65
2023/11/20 04:27:05;;;;;;;1.75;0.70;;;;;;;11.46;100.00;99762.19;7393042;19;20707;-65
2023/11/20 04:29:32;;;;;;;2.55;0.85;;;;;;;11.48;100.00;99760.16;7393245;19;20373;-64
2023/11/20 04:31:58;;;;;;;1.77;0.90;;;;;;;11.49;100.00;99755.66;7393447;19;20391;-64
2023/11/20 04:34:25;;;;;;;2.80;1.13;;;;;;;11.51;100.00;99766.88;7395111;19;20394;-65
2023/11/20 04:36:52;;;;;;;2.70;0.80;;;;;;;11.51;100.00;99748.28;7394245;19;20457;-65
2023/11/20 04:39:19;;;;;;;2.60;0.80;;;;;;;11.54;100.00;99761.16;7393599;19;20716;-65
2023/11/20 04:41:45;;;;;;;1.60;1.00;;;;;;;11.51;100.00;99758.91;7394437;19;20448;-64
2023/11/20 04:44:12;;;;;;;3.22;1.10;;;;;;;11.53;100.00;99756.88;7391030;19;20943;-64
2023/11/20 04:46:41;;;;;;;1.42;0.90;;;;;;;11.55;100.00;99754.84;7394742;19;20376;-64
2023/11/20 04:49:08;;;;;;;3.47;1.02;;;;;;;11.55;100.00;99762.78;7395436;19;20759;-64
2023/11/20 04:51:35;;;;;;;3.03;0.90;;;;;;;11.61;100.00;99754.00;7386706;19;20363;-65
2023/11/20 04:54:02;;;;;;;2.80;1.10;;;;;;;11.60;100.00;99755.03;7390481;19;20365;-64
2023/11/20 04:56:28;;;;;;;1.77;1.00;;;;;;;11.63;100.00;99752.78;7389155;19;20377;-63
2023/11/20 04:58:55;;;;;;;1.92;0.82;;;;;;;11.67;100.00;99755.00;7391114;19;20744;-64
2023/11/20 05:01:22;;;;;;;1.95;0.80;;;;;;;11.66;100.00;99759.53;7392035;19;20357;-64
2023/11/20 05:03:49;;;;;;;2.30;1.00;;;;;;;11.67;100.00;99763.81;7390722;19;20723;-64
2023/11/20 05:06:16;;;;;;;2.75;0.90;;;;;;;11.63;100.00;99751.97;7391350;19;20340;-65
2023/11/20 05:08:43;;;;;;;2.92;1.20;;;;;;;11.62;100.00;99755.63;7391589;19;20444;-65
2023/11/20 05:11:10;;;;;;;3.00;1.30;;;;;;;11.56;100.00;99767.91;7388813;19;20914;-65
2023/11/20 05:13:36;;;;;;;2.00;1.10;;;;;;;11.53;100.00;99765.66;7389212;19;20380;-65
2023/11/20 05:16:04;;;;;;;2.55;1.00;;;;;;;11.51;100.00;99764.22;7388734;19;20398;-65
2023/11/20 05:18:30;;;;;;;2.15;1.17;;;;;;;11.46;100.00;99764.84;7388919;19;20907;-65
2023/11/20 05:20:57;;;;;;;3.00;1.20;;;;;;;11.45;100.00;99776.47;7388762;19;20352;-65
2023/11/20 05:23:24;;;;;;;3.00;1.00;;;;;;;11.44;100.00;99766.88;7391132;19;20384;-65
2023/11/20 05:25:51;;;;;;;3.25;1.10;;;;;;;11.43;100.00;99776.69;7392332;19;20329;-65
2023/11/20 05:28:18;;;;;;;2.60;1.20;;;;;;;11.41;100.00;99776.06;7389548;19;20359;-65
2023/11/20 05:30:44;;;;;;;3.07;1.20;;;;;;;11.42;100.00;99771.56;7388508;19;20364;-65
2023/11/20 05:33:12;;;;;;;3.55;1.38;;;;;;;11.44;100.00;99758.91;7390050;19;20368;-64
2023/11/20 05:35:39;;;;;;;2.17;1.10;;;;;;;11.39;100.00;99791.41;7390964;19;20360;-64
2023/11/20 05:38:05;;;;;;;2.80;1.13;;;;;;;11.37;100.00;99782.81;7390414;19;20369;-64
2023/11/20 05:40:33;;;;;;;2.72;1.10;;;;;;;11.40;100.00;99768.31;7390911;19;20902;-65
2023/11/20 05:43:00;;;;;;;2.97;1.30;;;;;;;11.38;100.00;99781.78;7393412;19;20364;-64
2023/11/20 05:45:27;;;;;;;2.20;1.02;;;;;;;11.40;100.00;99784.25;7393017;19;20713;-64
2023/11/20 05:47:54;;;;;;;2.50;1.10;;;;;;;11.39;100.00;99783.44;7393126;19;20943;-64
2023/11/20 05:50:21;;;;;;;2.72;1.17;;;;;;;11.40;100.00;99802.81;7390459;19;20360;-64
2023/11/20 05:52:47;;;;;;;3.47;1.20;;;;;;;11.39;100.00;99799.34;7390877;19;20427;-64
2023/11/20 05:55:14;;;;;;;2.17;1.20;;;;;;;11.40;100.00;99794.88;7390912;19;20369;-64
2023/11/20 05:57:41;;;;;;;2.00;1.30;;;;;;;11.39;100.00;99827.72;7390690;19;20376;-64
2023/11/20 06:00:10;;;;;;;2.22;1.10;;;;;;;11.37;100.00;99801.41;7391635;19;20381;-63
2023/11/20 06:02:37;;;;;;;2.65;1.08;;;;;;;11.39;100.00;99801.19;7386716;19;20373;-64
2023/11/20 06:05:04;;;;;;;2.40;1.10;;;;;;;11.37;100.00;99806.72;7389917;19;20434;-65
2023/11/20 06:07:35;;;;;;;3.08;1.10;;;;;;;11.35;100.00;99810.59;7392372;19;20427;-65
2023/11/20 06:10:02;;;;;;;2.88;1.20;;;;;;;11.29;100.00;99814.88;7392288;19;20364;-66
2023/11/20 06:12:29;;;;;;;1.95;1.10;;;;;;;11.23;100.00;99805.84;7391605;19;20868;-66
2023/11/20 06:14:56;;;;;;;3.03;1.20;;;;;;;11.25;100.00;99803.00;7389607;19;20336;-66
2023/11/20 06:17:24;;;;;;;3.22;1.35;;;;;;;11.22;100.00;99806.06;7391020;19;20361;-67
2023/11/20 06:19:51;;;;;;;2.20;1.10;;;;;;;11.21;100.00;99807.06;7387879;19;20393;-67
2023/11/20 06:22:18;;;;;;;3.05;1.40;;;;;;;11.23;100.00;99808.50;7383538;19;20364;-67
2023/11/20 06:24:45;;;;;;;4.03;1.50;;;;;;;11.21;100.00;99807.06;7389992;19;20360;-68
2023/11/20 06:27:11;;;;;;;2.70;1.20;;;;;;;11.21;100.00;99817.69;7398673;19;20370;-68
2023/11/20 06:29:39;;;;;;;3.20;1.20;;;;;;;11.14;100.00;99830.97;7399395;19;20426;-68
2023/11/20 06:32:09;;;;;;;4.63;1.50;;;;;;;11.17;100.00;99819.13;7399347;19;20350;-72
2023/11/20 06:34:36;;;;;;;3.67;1.50;;;;;;;11.18;100.00;99829.53;7398282;19;20852;-72
2023/11/20 06:37:03;;;;;;;3.35;1.13;;;;;;;11.20;100.00;99826.69;7399141;19;20360;-72
2023/11/20 06:39:33;;;;;;;3.20;1.70;;;;;;;11.22;100.00;99824.66;7397313;19;20368;-72
2023/11/20 06:42:00;;;;;;;4.32;2.03;;;;;;;11.21;100.00;99841.59;7398481;19;20352;-71
2023/11/20 06:44:27;;;;;;;6.90;2.92;;;;;;;11.21;100.00;99833.63;7397638;19;20368;-71
2023/11/20 06:46:53;;;;;;;4.68;2.20;;;;;;;11.18;100.00;99844.66;7393875;19;20359;-71
2023/11/20 06:49:20;;;;;;;5.28;2.42;;;;;;;11.20;100.00;99843.44;7390764;19;20368;-71
2023/11/20 06:51:47;;;;;;;4.13;1.90;;;;;;;11.24;100.00;99849.13;7397167;19;21313;-71
2023/11/20 06:54:14;;;;;;;5.33;1.97;;;;;;;11.24;100.00;99843.81;7396704;19;20358;-71
2023/11/20 06:56:41;;;;;;;5.75;1.80;;;;;;;11.23;100.00;99842.22;7396713;19;20423;-72
2023/11/20 06:59:08;;;;;;;3.67;1.73;;;;;;;11.15;100.00;99867.09;7393487;19;20462;-72
2023/11/20 07:01:35;;;;;;;4.13;1.60;;;;;;;11.15;100.00;99863.63;7395361;19;20424;-71
2023/11/20 07:04:02;;;;;;;4.22;1.73;;;;;;;11.11;100.00;99865.84;7393425;19;20467;-71
2023/11/20 07:06:29;;;;;;;6.03;1.70;;;;;;;11.09;100.00;99854.59;7395604;19;20359;-70
2023/11/20 07:08:56;;;;;;;5.05;1.77;;;;;;;11.05;100.00;99855.22;7396685;19;20883;-71
2023/11/20 07:11:23;;;;;;;3.90;1.50;;;;;;;11.02;100.00;99861.75;7396466;19;20344;-71
2023/11/20 07:13:50;;;;;;;4.95;2.25;;;;;;;11.02;100.00;99859.09;7394915;19;20389;-70
2023/11/20 07:16:17;;;;;;;6.95;2.67;;;;;;;11.02;100.00;99862.53;7395680;19;20336;-71
2023/11/20 07:18:44;;;;;;;5.05;2.10;;;;;;;11.02;100.00;99870.50;7395633;19;20382;-70
2023/11/20 07:21:11;;;;;;;6.03;1.90;;;;;;;10.99;100.00;99870.91;7396718;19;20365;-70
2023/11/20 07:23:37;;;;;;;5.35;2.20;;;;;;;11.02;100.00;99875.00;7395572;19;20351;-70
2023/11/20 07:26:04;;;;;;;5.93;2.22;;;;;;;11.00;100.00;99877.84;7393654;19;20359;-69
2023/11/20 07:28:33;;;;;;;4.10;1.95;;;;;;;10.98;100.00;99876.41;7392601;19;20361;-69
2023/11/20 07:31:00;;;;;;;7.22;2.33;;;;;;;11.01;100.00;99876.84;7395121;19;20384;-69
2023/11/20 07:33:27;;;;;;;4.50;2.17;;;;;;;11.03;100.00;99874.00;7395689;19;20403;-70
2023/11/20 07:35:54;;;;;;;6.47;2.30;;;;;;;11.02;100.00;99878.47;7396905;19;20432;-70
2023/11/20 07:38:22;;;;;;;4.60;1.85;;;;;;;11.00;100.00;99874.38;7388992;19;20360;-70
2023/11/20 07:40:49;;;;;;;4.18;1.80;;;;;;;10.99;100.00;99889.50;7396188;19;20374;-70
2023/11/20 07:43:16;;;;;;;6.63;2.00;;;;;;;11.01;100.00;99890.13;7394475;19;20356;-70
2023/11/20 07:45:46;;;;;;;4.65;1.80;;;;;;;10.99;100.00;99894.00;7396120;19;20361;-70
2023/11/20 07:48:13;;;;;;;5.03;2.05;;;;;;;11.02;100.00;99888.28;7391451;19;20343;-71
2023/11/20 07:50:39;;;;;;;7.40;2.00;;;;;;;11.04;100.00;99898.69;7391374;19;20356;-70
2023/11/20 07:53:06;;;;;;;4.93;1.90;;;;;;;11.02;100.00;99899.69;7393457;19;20372;-70
2023/11/20 07:55:33;;;;;;;5.13;1.95;;;;;;;11.05;100.00;99905.63;7397135;19;20878;-70
2023/11/20 07:58:00;;;;;;;3.95;1.67;;;;;;;11.04;100.00;99896.06;7393585;19;20675;-70
2023/11/20 08:00:27;;;;;;;2.42;1.40;;;;;;;11.06;100.00;99904.63;7388924;19;20345;-70
2023/11/20 08:02:54;;;;;;;4.28;1.77;;;;;;;11.08;100.00;99906.06;7391706;19;20349;-70
2023/11/20 08:05:20;;;;;;;3.33;1.63;;;;;;;11.07;100.00;99904.44;7396479;19;20377;-70
2023/11/20 08:07:48;;;;;;;5.13;1.88;;;;;;;11.08;100.00;99889.34;7394540;19;20344;-70
2023/11/20 08:10:18;;;;;;;4.15;1.55;;;;;;;11.10;100.00;99903.22;7392522;19;21083;-69
2023/11/20 08:12:48;;;;;;;3.65;1.60;;;;;;;11.09;100.00;99904.22;7394219;19;20371;-70
2023/11/20 08:15:15;;;;;;;3.17;1.60;;;;;;;11.14;100.00;99912.44;7394906;19;20869;-69
2023/11/20 08:17:42;;;;;;;4.70;1.40;;;;;;;11.13;100.00;99913.44;7392679;19;20361;-69
2023/11/20 08:20:09;;;;;;;3.92;1.45;;;;;;;11.17;100.00;99933.25;7391345;19;20360;-70
2023/11/20 08:22:37;;;;;;;5.43;1.63;;;;;;;11.18;100.00;99914.50;7393037;19;21121;-69
2023/11/20 08:25:05;;;;;;;2.85;1.30;;;;;;;11.20;100.00;99911.66;7393317;19;20360;-69
2023/11/20 08:27:31;;;;;;;3.47;1.48;;;;;;;11.18;100.00;99934.91;7394655;19;20369;-70
2023/11/20 08:29:58;;;;;;;3.45;1.40;;;;;;;11.19;100.00;99929.38;7394333;19;20440;-69
2023/11/20 08:32:25;;;;;;;2.60;1.40;;;;;;;11.18;100.00;99919.81;7394587;19;20951;-70
2023/11/20 08:34:52;;;;;;;3.72;1.27;;;;;;;11.21;100.00;99934.50;7392324;19;20351;-70
2023/11/20 08:37:19;;;;;;;3.92;1.38;;;;;;;11.22;100.00;99929.00;7394910;19;20859;-70
2023/11/20 08:39:47;;;;;;;3.03;1.17;;;;;;;11.23;100.00;99932.47;7392973;19;20449;-70
2023/11/20 08:42:14;;;;;;;5.10;1.20;;;;;;;11.19;100.00;99932.03;7395419;19;20376;-70
2023/11/20 08:44:41;;;;;;;3.28;1.30;;;;;;;11.22;100.00;99925.53;7394348;19;20373;-70
2023/11/20 08:47:09;;;;;;;4.35;1.27;;;;;;;11.15;100.00;99936.09;7391775;19;20336;-70
2023/11/20 08:49:36;;;;;;;2.55;1.08;;;;;;;11.14;100.00;99945.09;7392887;19;20404;-71
2023/11/20 08:52:04;;;;;;;2.53;1.10;;;;;;;11.13;100.00;99926.72;7393152;19;20349;-70
2023/11/20 08:54:34;;;;;;;3.08;1.30;;;;;;;11.15;100.00;99935.28;7394426;19;20727;-70
2023/11/20 08:57:01;;;;;;;3.88;1.33;;;;;;;11.18;100.00;99930.41;7394935;19;20365;-70
2023/11/20 08:59:28;;;;;;;3.90;1.48;;;;;;;11.17;100.00;99928.75;7391819;19;20883;-70
2023/11/20 09:01:58;;;;;;;3.60;1.50;;;;;;;11.17;100.00;99933.25;7393382;19;20355;-70
2023/11/20 09:04:26;;;;;;;4.33;1.60;;;;;;;11.17;100.00;99938.56;7391082;19;20892;-70
2023/11/20 09:06:53;;;;;;;3.75;1.20;;;;;;;11.12;100.00;99948.97;7390061;19;20738;-70
2023/11/20 09:09:21;;;;;;;3.75;1.42;;;;;;;11.10;100.00;99921.81;7389169;19;20363;-71
2023/11/20 09:11:47;;;;;;;4.25;1.58;;;;;;;11.06;100.00;99928.53;7392619;19;20358;-69
2023/11/20 09:14:14;;;;;;;3.47;1.40;;;;;;;11.04;100.00;99922.59;7390430;19;20368;-70
2023/11/20 09:16:41;;;;;;;5.20;1.58;;;;;;;11.03;100.00;99932.41;7392156;19;20427;-69
2023/11/20 09:19:08;;;;;;;4.28;1.75;;;;;;;11.06;100.00;99931.19;7391499;19;20356;-70
2023/11/20 09:21:35;;;;;;;5.63;1.90;;;;;;;11.03;100.00;99943.00;7392884;19;20352;-69
2023/11/20 09:24:02;;;;;;;4.63;2.03;;;;;;;11.05;100.00;99948.09;7392370;19;20385;-69
2023/11/20 09:26:29;;;;;;;4.32;2.10;;;;;;;11.09;100.00;99930.78;7391050;19;20359;-69
2023/11/20 09:28:56;;;;;;;4.93;2.00;;;;;;;11.11;100.00;99934.84;7389578;19;20924;-69
2023/11/20 09:31:23;;;;;;;5.20;1.88;;;;;;;11.12;100.00;99938.34;7391489;19;20883;-69
2023/11/20 09:33:51;;;;;;;5.57;2.05;;;;;;;11.11;100.00;99950.78;7390396;19;20357;-69
2023/11/20 09:36:18;;;;;;;7.07;1.90;;;;;;;11.12;100.00;99935.69;7391020;19;20348;-69
2023/11/20 09:38:45;;;;;;;7.20;2.20;;;;;;;11.06;100.00;99947.91;7389756;19;20359;-69
2023/11/20 09:41:13;;;;;;;6.10;2.38;;;;;;;10.99;100.00;99955.84;7390758;19;20404;-69
2023/11/20 09:43:42;;;;;;;8.05;2.20;;;;;;;11.08;100.00;99939.75;7390074;19;20352;-69
2023/11/20 09:46:11;;;;;;;5.88;2.22;;;;;;;11.06;100.00;99968.34;7386154;19;20363;-69
2023/11/20 09:48:38;;;;;;;6.05;2.17;;;;;;;11.05;100.00;99956.06;7392085;19;20357;-69
2023/11/20 09:51:09;;;;;;;5.97;2.35;;;;;;;11.06;100.00;99953.22;7391055;19;20348;-69
2023/11/20 09:53:40;;;;;;;8.48;2.38;;;;;;;11.08;100.00;99959.16;7390705;19;20365;-68
2023/11/20 09:56:10;;;;;;;8.97;2.77;;;;;;;11.11;100.00;99947.31;7388428;19;20464;-69
2023/11/20 09:58:40;;;;;;;8.07;3.00;;;;;;;11.18;100.00;99946.34;7389250;19;20379;-68
2023/11/20 10:01:10;;;;;;;7.75;2.58;;;;;;;11.18;100.00;99951.66;7388365;19;20419;-68
2023/11/20 10:03:39;;;;;;;10.40;2.90;;;;;;;11.30;100.00;99949.25;7389674;19;20361;-68
2023/11/20 10:06:07;;;;;;;8.77;3.37;;;;;;;11.43;100.00;99949.31;7390809;19;20333;-68
2023/11/20 10:08:36;;;;;;;11.73;3.70;;;;;;;11.53;100.00;99945.44;7392067;19;20384;-67
2023/11/20 10:11:04;;;;;;;11.73;3.00;;;;;;;11.54;100.00;99958.53;7391476;19;20397;-68
2023/11/20 10:13:32;;;;;;;8.68;3.28;;;;;;;11.60;100.00;99948.94;7390200;19;20856;-68
2023/11/20 10:15:59;;;;;;;9.77;2.70;;;;;;;11.60;100.00;99962.22;7389788;19;20361;-67
2023/11/20 10:18:27;;;;;;;7.72;2.85;;;;;;;11.67;100.00;99948.94;7390881;19;20345;-67
2023/11/20 10:20:57;;;;;;;11.43;3.70;;;;;;;11.74;100.00;99950.63;7388006;19;20455;-67
2023/11/20 10:23:25;;;;;;;10.73;3.40;;;;;;;11.78;100.00;99946.53;7391258;19;20380;-67
2023/11/20 10:25:52;;;;;;;10.18;3.17;;;;;;;11.84;100.00;99950.25;7390966;19;20419;-67
2023/11/20 10:28:21;;;;;;;9.65;3.10;;;;;;;11.81;100.00;99962.06;7386978;19;20412;-67
2023/11/20 10:30:49;;;;;;;11.82;3.35;;;;;;;11.84;100.00;99976.81;7390378;19;20372;-67
2023/11/20 10:33:20;;;;;;;10.37;3.03;;;;;;;11.80;100.00;99955.13;7388410;19;20698;-66
2023/11/20 10:35:50;;;;;;;13.05;3.20;;;;;;;11.80;100.00;99973.72;7388738;19;20880;-66
2023/11/20 10:38:18;;;;;;;11.48;3.00;;;;;;;11.75;99.83;99957.59;7389833;19;20723;-66
2023/11/20 10:40:45;;;;;;;11.75;3.38;;;;;;;11.77;100.00;99957.38;7383958;19;20380;-66
2023/11/20 10:43:12;;;;;;;13.07;3.28;;;;;;;11.69;99.90;99958.38;7388104;19;20360;-66
2023/11/20 10:45:39;;;;;;;11.60;3.38;;;;;;;11.67;99.76;99949.78;7392475;19;20348;-66
2023/11/20 10:48:07;;;;;;;11.82;3.05;;;;;;;11.66;99.90;99956.13;7387769;19;20882;-66
2023/11/20 10:50:35;;;;;;;13.38;3.20;;;;;;;11.65;99.89;99953.69;7389984;19;21142;-66
2023/11/20 10:53:06;;;;;;;8.88;2.78;;;;;;;11.57;99.31;99957.31;7389110;19;20349;-66
2023/11/20 10:55:49;;;;;;;9.80;3.17;;;;;;;11.55;99.48;99964.66;7388377;19;20357;-65
2023/11/20 10:58:17;;;;;;;13.07;3.13;;;;;;;11.52;98.62;99954.44;7389839;19;20908;-66
2023/11/20 11:00:45;;;;;;;10.65;3.13;;;;;;;11.52;99.19;99949.13;7388476;19;20719;-66
2023/11/20 11:03:15;;;;;;;8.48;2.47;;;;;;;11.51;98.94;99952.81;7387415;19;20365;-66
2023/11/20 11:05:46;;;;;;;9.13;3.28;;;;;;;11.59;99.61;99949.97;7388320;19;20356;-66
2023/11/20 11:08:14;;;;;;;11.32;3.38;;;;;;;11.56;99.37;99945.03;7390873;19;20385;-66
2023/11/20 11:10:43;;;;;;;7.90;2.97;;;;;;;11.47;98.70;99943.59;7388888;19;20403;-66
2023/11/20 11:13:11;;;;;;;8.75;3.10;;;;;;;11.47;99.49;99943.59;7393507;19;20702;-66
2023/11/20 11:15:40;;;;;;;8.15;2.92;;;;;;;11.41;99.20;99942.53;7397298;19;20348;-66
2023/11/20 11:18:08;;;;;;;12.00;3.20;;;;;;;11.32;98.62;99957.81;7393545;19;20704;-66
2023/11/20 11:20:46;;;;;;;7.53;2.80;;;;;;;11.30;99.05;99943.94;7397329;19;20365;-67
2023/11/20 11:23:16;;;;;;;8.82;2.85;;;;;;;11.26;99.29;99950.66;7395491;19;20713;-66
2023/11/20 11:25:59;;;;;;;9.18;3.25;;;;;;;11.20;99.34;99949.63;7397564;19;20348;-66